Time;durP1;ratioP1;P1;durP2;ratioP2;P2;SDS_P1;SDS_P2;PMS_P1;PMS_P2;Temp;Humidity;BMP_temperature;BMP_pressure;BME280_temperature;BME280_humidity;BME280_pressure;Samples;Min_cycle;Max_cycle;Signal;HPM_P1;HPM_P2
2023/01/12 13:39:14;;;;;;;;;2.67;1.00;;;;;12.77;75.02;101086.94;6229781;22;1293210;-47
2023/01/12 13:44:36;;;;;;;;;1.33;0.00;;;;;12.77;75.31;101081.59;6274363;22;45265;-50
2023/01/12 13:47:09;;;;;;;;;3.00;1.00;;;;;12.78;75.37;101081.47;6274536;22;45179;-50
2023/01/12 13:49:44;;;;;;;;;0.00;0.00;;;;;12.79;75.04;101077.78;6273962;22;45324;-49
2023/01/12 13:52:28;;;;;;;;;5.67;0.67;;;;;12.79;75.53;101071.63;6274291;22;45352;-53
2023/01/12 13:54:54;;;;;;;;;0.33;0.33;;;;;12.81;75.20;101082.97;6274654;22;45329;-52
2023/01/12 13:57:21;;;;;;;;;0.67;0.00;;;;;12.78;74.95;101077.94;6273162;22;45500;-48
2023/01/12 14:00:18;;;;;;;;;4.00;1.00;;;;;12.65;75.47;101063.16;6273633;22;45561;-47
2023/01/12 14:02:43;;;;;;;;;1.00;1.00;;;;;12.74;75.67;101075.59;6273628;22;45287;-49
2023/01/12 14:05:27;;;;;;;;;2.33;1.00;;;;;12.71;75.21;101073.22;6273833;22;45589;-46
2023/01/12 14:08:24;;;;;;;;;0.67;0.67;;;;;12.71;75.41;101069.69;6274436;22;45635;-49
2023/01/12 14:11:14;;;;;;;;;0.00;0.00;;;;;12.70;75.45;101063.53;6274109;22;45286;-55
2023/01/12 14:13:50;;;;;;;;;0.00;0.00;;;;;12.72;75.77;101061.56;6274334;22;45352;-51
2023/01/12 14:19:00;;;;;;;;;2.67;2.33;;;;;12.66;76.29;101051.47;6274486;22;45225;-47
2023/01/12 14:21:28;;;;;;;;;1.67;1.00;;;;;12.69;76.08;101061.03;6272225;22;45317;-56
2023/01/12 14:24:13;;;;;;;;;0.33;0.33;;;;;12.64;75.70;101053.47;6272592;22;45356;-54
2023/01/12 14:26:38;;;;;;;;;1.00;0.00;;;;;12.65;75.73;101041.81;6273365;22;45388;-58
2023/01/12 14:29:06;;;;;;;;;0.00;0.00;;;;;12.65;75.73;101028.47;6274058;22;45228;-46
2023/01/12 14:31:38;;;;;;;;;7.33;2.00;;;;;12.65;76.17;101028.47;6273658;22;47224;-54
2023/01/12 14:34:06;;;;;;;;;0.33;0.33;;;;;12.66;76.29;101030.13;6274291;22;45673;-58
2023/01/12 14:36:41;;;;;;;;;0.67;0.00;;;;;12.56;76.00;101005.38;6273804;22;45368;-50
2023/01/12 14:39:13;;;;;;;;;1.00;0.00;;;;;12.65;76.14;101016.94;6274190;22;45289;-60
2023/01/12 14:47:21;;;;;;;;;1.33;1.33;;;;;12.64;76.28;101010.78;6274173;22;45235;-56
2023/01/12 14:49:46;;;;;;;;;1.33;1.33;;;;;12.61;76.22;101027.09;6274371;22;45317;-48
2023/01/12 14:52:12;;;;;;;;;0.33;0.00;;;;;12.59;76.31;101013.03;6273087;22;47410;-50
2023/01/12 14:54:37;;;;;;;;;1.00;1.00;;;;;12.59;75.77;101014.88;6273817;22;45317;-48
2023/01/12 14:57:06;;;;;;;;;2.33;1.00;;;;;12.59;75.67;101017.53;6273734;22;45340;-48
2023/01/12 14:59:44;;;;;;;;;1.00;1.00;;;;;12.58;75.67;101008.69;6273775;22;45383;-48
2023/01/12 15:02:12;;;;;;;;;2.00;2.00;;;;;12.59;75.84;101012.22;6273210;22;46417;-50
2023/01/12 15:04:55;;;;;;;;;3.67;1.33;;;;;12.58;75.63;101000.69;6273769;22;45367;-50
2023/01/12 15:07:21;;;;;;;;;1.33;0.67;;;;;12.58;75.66;101002.53;6273138;22;45465;-52
2023/01/12 15:09:59;;;;;;;;;0.00;0.00;;;;;12.57;75.99;101006.19;6273731;22;45363;-52
2023/01/12 15:12:27;;;;;;;;;1.67;1.00;;;;;12.57;75.90;100991.03;6273269;22;46348;-49
2023/01/12 15:15:10;;;;;;;;;0.00;0.00;;;;;12.57;75.63;101004.38;6273843;22;45264;-56
2023/01/12 15:25:54;;;;;;;;;2.00;0.00;;;;;12.58;74.91;100978.50;6273625;22;45135;-45
2023/01/12 15:28:19;;;;;;;;;2.00;2.00;;;;;12.59;74.95;100982.84;6273717;22;45243;-44
2023/01/12 15:30:44;;;;;;;;;1.00;1.00;;;;;12.58;74.75;100975.84;6273695;22;45269;-44
2023/01/12 15:33:10;;;;;;;;;4.00;2.00;;;;;12.62;74.60;100983.38;6273272;22;46764;-45
2023/01/12 15:35:42;;;;;;;;;2.00;0.00;;;;;12.60;74.46;100981.84;6273767;22;45296;-44
2023/01/12 15:38:12;;;;;;;;;2.33;0.00;;;;;12.63;74.83;100985.06;6273440;22;45218;-45
2023/01/12 15:40:39;;;;;;;;;0.67;0.00;;;;;12.62;74.03;100978.03;6273339;22;45400;-45
2023/01/12 15:43:05;;;;;;;;;0.00;0.00;;;;;12.65;73.86;100974.25;6273884;22;45354;-44
2023/01/12 15:45:38;;;;;;;;;1.00;0.00;;;;;12.64;74.41;100989.41;6271482;22;45319;-44
2023/01/12 15:48:04;;;;;;;;;1.67;1.67;;;;;12.64;74.05;100989.41;6273049;22;45526;-48
2023/01/12 15:50:31;;;;;;;;;0.00;0.00;;;;;12.65;74.26;101001.78;6273972;22;45390;-43
2023/01/12 15:52:59;;;;;;;;;2.00;0.00;;;;;12.65;74.45;100979.56;6273283;22;45914;-47
2023/01/12 15:55:24;;;;;;;;;1.00;1.00;;;;;12.63;74.31;100970.88;6273117;22;45326;-44
2023/01/12 15:57:51;;;;;;;;;2.00;2.00;;;;;12.55;74.76;100966.31;6273240;22;45380;-46
2023/01/12 16:00:21;;;;;;;;;2.00;1.00;;;;;12.53;74.58;100980.81;6272349;22;45395;-44
2023/01/12 16:02:51;;;;;;;;;0.00;0.00;;;;;12.62;75.08;100985.22;6272966;22;47260;-42
2023/01/12 16:05:19;;;;;;;;;1.33;1.33;;;;;12.59;74.58;100993.53;6272994;22;45313;-44
2023/01/12 16:07:45;;;;;;;;;4.00;2.67;;;;;12.57;74.94;100985.69;6273078;22;45347;-42
2023/01/12 16:10:12;;;;;;;;;0.00;0.00;;;;;12.57;74.68;100971.50;6273909;22;45241;-43
2023/01/12 16:12:39;;;;;;;;;2.00;1.00;;;;;12.54;75.21;100977.13;6273058;22;47139;-46
2023/01/12 16:15:06;;;;;;;;;0.33;0.33;;;;;12.49;74.89;100974.94;6273111;22;45383;-42
2023/01/12 16:17:31;;;;;;;;;1.00;0.00;;;;;12.51;75.32;100988.94;6271630;22;45360;-45
2023/01/12 16:19:57;;;;;;;;;0.00;0.00;;;;;12.49;75.55;100980.28;6273883;22;45275;-48
2023/01/12 16:22:25;;;;;;;;;0.33;0.33;;;;;12.42;75.51;100974.69;6272551;22;45363;-48
2023/01/12 16:24:52;;;;;;;;;1.67;1.67;;;;;12.47;75.86;100976.91;6272902;22;45407;-47
2023/01/12 16:27:19;;;;;;;;;0.00;0.00;;;;;12.44;75.79;100975.41;6273215;22;45451;-41
2023/01/12 16:29:45;;;;;;;;;1.00;1.00;;;;;12.43;75.66;100978.19;6273417;22;45387;-50
2023/01/12 16:32:10;;;;;;;;;1.00;1.00;;;;;12.44;76.06;100971.91;6273480;22;45315;-47
2023/01/12 16:34:36;;;;;;;;;0.00;0.00;;;;;12.41;76.04;100962.34;6273233;22;45356;-47
2023/01/12 16:37:02;;;;;;;;;0.00;0.00;;;;;12.37;76.08;100965.47;6273602;22;45364;-52
2023/01/12 16:39:28;;;;;;;;;0.67;0.67;;;;;12.32;76.35;100963.28;6273684;22;45297;-42
2023/01/12 16:41:59;;;;;;;;;6.67;1.00;;;;;12.31;76.48;100966.94;6273592;22;46114;-49
2023/01/12 16:44:26;;;;;;;;;4.67;2.00;;;;;12.26;76.53;100963.03;6272868;22;45364;-46
2023/01/12 16:46:52;;;;;;;;;2.00;1.00;;;;;12.32;76.62;100970.44;6273048;22;45342;-42
2023/01/12 16:49:17;;;;;;;;;2.67;0.00;;;;;12.30;76.74;100975.06;6273119;22;45303;-45
2023/01/12 16:51:42;;;;;;;;;3.00;0.33;;;;;12.29;76.53;100942.22;6271237;22;45475;-51
2023/01/12 16:54:08;;;;;;;;;3.33;1.33;;;;;12.28;76.65;100959.25;6273985;22;45367;-50
2023/01/12 16:56:33;;;;;;;;;1.33;1.00;;;;;12.29;76.44;100960.06;6274554;22;45304;-44
2023/01/12 16:58:59;;;;;;;;;1.33;1.00;;;;;12.27;76.63;100965.56;6274207;22;45344;-46
2023/01/12 17:01:24;;;;;;;;;2.00;0.67;;;;;12.26;76.36;100963.88;6273833;22;52249;-52
2023/01/12 17:03:52;;;;;;;;;1.00;0.67;;;;;12.25;76.47;100967.53;6274423;22;45359;-51
2023/01/12 17:06:19;;;;;;;;;1.33;0.67;;;;;12.24;76.19;100965.88;6246735;22;45268;-53
2023/01/12 17:08:45;;;;;;;;;2.67;1.67;;;;;12.17;76.47;100938.94;6274596;22;45436;-50
2023/01/12 17:11:13;;;;;;;;;1.00;1.00;;;;;12.17;76.64;100941.63;6274119;22;45908;-44
2023/01/12 17:13:39;;;;;;;;;2.00;2.00;;;;;12.26;76.32;100937.19;6274118;22;45429;-44
2023/01/12 17:16:09;;;;;;;;;0.33;0.33;;;;;12.28;76.59;100939.72;6274349;22;45335;-45
2023/01/12 17:18:37;;;;;;;;;2.00;2.00;;;;;12.27;76.70;100938.91;6274259;22;45366;-46
2023/01/12 17:21:06;;;;;;;;;0.33;0.33;;;;;12.21;76.60;100915.47;6274563;22;45958;-44
2023/01/12 17:23:32;;;;;;;;;3.00;1.00;;;;;12.27;76.88;100922.91;6273502;22;45370;-43
2023/01/12 17:26:05;;;;;;;;;0.33;0.00;;;;;12.27;76.73;100928.22;6274188;22;45209;-43
2023/01/12 17:28:33;;;;;;;;;0.67;0.67;;;;;12.29;76.54;100936.91;6274951;22;45304;-42
2023/01/12 17:31:04;;;;;;;;;0.33;0.33;;;;;12.31;76.70;100942.09;6273664;22;46420;-41
2023/01/12 17:33:30;;;;;;;;;6.67;1.00;;;;;12.29;76.89;100933.41;6273201;22;45594;-41
2023/01/12 17:35:55;;;;;;;;;1.33;1.00;;;;;12.27;76.85;100941.56;6273827;22;45296;-44
2023/01/12 17:38:21;;;;;;;;;1.00;1.00;;;;;12.23;76.99;100946.38;6273940;22;45312;-44
2023/01/12 17:40:46;;;;;;;;;1.00;1.00;;;;;12.28;77.06;100942.41;6273883;22;47257;-41
2023/01/12 17:43:13;;;;;;;;;1.33;1.00;;;;;12.28;77.39;100939.72;6273833;22;45211;-41
2023/01/12 17:45:41;;;;;;;;;3.33;0.67;;;;;12.28;77.11;100934.41;6274453;22;45411;-44
2023/01/12 17:48:08;;;;;;;;;0.00;0.00;;;;;12.13;76.75;100918.06;6274970;22;45426;-45
2023/01/12 17:50:33;;;;;;;;;4.33;1.00;;;;;12.21;77.54;100937.66;6273865;22;46039;-52
2023/01/12 17:52:59;;;;;;;;;2.67;2.00;;;;;12.25;76.81;100924.84;6273677;22;45946;-50
2023/01/12 17:55:24;;;;;;;;;5.00;2.00;;;;;12.24;77.07;100934.69;6246576;22;45407;-51
2023/01/12 17:57:50;;;;;;;;;7.00;2.33;;;;;12.23;76.94;100933.03;6273889;22;45375;-41
2023/01/12 18:00:16;;;;;;;;;2.67;1.00;;;;;12.23;77.01;100927.69;6273794;22;46142;-45
2023/01/12 18:02:42;;;;;;;;;1.00;1.00;;;;;12.20;77.43;100922.66;6273762;22;45282;-40
2023/01/12 18:05:08;;;;;;;;;0.00;0.00;;;;;12.21;76.89;100910.97;6273896;22;45349;-42
2023/01/12 18:07:34;;;;;;;;;2.33;0.00;;;;;12.21;77.37;100932.31;6274046;22;45234;-53
2023/01/12 18:09:59;;;;;;;;;1.33;1.00;;;;;12.20;77.51;100928.00;6273462;22;46155;-41
2023/01/12 18:12:26;;;;;;;;;1.33;1.00;;;;;12.22;77.70;100920.69;6274243;22;45249;-43
2023/01/12 18:14:54;;;;;;;;;2.67;2.00;;;;;12.22;77.25;100919.84;6273933;22;45343;-47
2023/01/12 18:17:21;;;;;;;;;1.00;1.00;;;;;12.23;77.47;100916.19;6273844;22;45424;-50
2023/01/12 18:19:47;;;;;;;;;3.00;1.33;;;;;12.20;77.26;100911.97;6274027;22;45297;-41
2023/01/12 18:22:12;;;;;;;;;2.00;1.00;;;;;12.23;77.56;100930.34;6273819;22;45379;-53
2023/01/12 18:24:38;;;;;;;;;2.33;2.00;;;;;12.24;77.38;100917.84;6274087;22;45322;-53
2023/01/12 18:27:03;;;;;;;;;3.67;1.00;;;;;12.24;76.96;100921.34;6274304;22;45270;-50
2023/01/12 18:29:28;;;;;;;;;1.00;0.00;;;;;12.25;76.86;100911.53;6273751;22;46187;-53
2023/01/12 18:31:54;;;;;;;;;1.00;1.00;;;;;12.27;76.93;100919.38;6273619;22;45383;-52
2023/01/12 18:34:19;;;;;;;;;3.00;1.00;;;;;12.27;77.42;100917.56;6274287;22;45325;-50
2023/01/12 18:36:45;;;;;;;;;4.00;1.00;;;;;12.19;77.29;100896.97;6274188;22;45430;-47
2023/01/12 18:39:15;;;;;;;;;4.33;2.67;;;;;12.29;77.10;100915.56;6272684;22;45920;-51
2023/01/12 18:44:24;;;;;;;;;0.00;0.00;;;;;12.31;77.29;100912.75;6274058;22;45412;-53
2023/01/12 18:49:34;;;;;;;;;0.00;0.00;;;;;12.32;77.19;100909.09;6274015;22;45328;-52
2023/01/12 18:54:50;;;;;;;;;0.33;0.33;;;;;12.34;77.01;100912.44;6274175;22;45289;-42
2023/01/12 18:57:17;;;;;;;;;2.00;1.00;;;;;12.33;77.18;100908.94;6275077;22;45328;-51
2023/01/12 18:59:48;;;;;;;;;3.00;0.00;;;;;12.34;76.59;100917.75;6274092;22;45410;-40
2023/01/12 19:02:15;;;;;;;;;3.33;1.00;;;;;12.34;77.16;100902.59;6274116;22;45315;-50
2023/01/12 19:07:14;;;;;;;;;2.33;0.00;;;;;12.35;77.33;100898.13;6273936;22;45392;-46
2023/01/12 19:09:39;;;;;;;;;2.00;1.00;;;;;12.41;76.61;100910.81;6246565;22;45393;-47
2023/01/12 19:12:05;;;;;;;;;1.00;1.00;;;;;12.43;77.04;100906.16;6273283;22;45253;-50
2023/01/12 19:17:28;;;;;;;;;1.33;1.00;;;;;12.43;77.28;100896.34;6273411;22;45375;-41
2023/01/12 19:19:58;;;;;;;;;1.00;1.00;;;;;12.45;77.21;100890.84;6273603;22;47007;-51
2023/01/12 19:30:43;;;;;;;;;1.67;0.00;;;;;12.48;76.57;100882.53;6274475;22;45709;-42
2023/01/12 19:33:13;;;;;;;;;1.00;1.00;;;;;12.49;76.52;100898.38;6273480;22;45319;-43
2023/01/12 19:35:39;;;;;;;;;3.00;2.00;;;;;12.48;76.28;100872.72;6274249;22;45191;-42
2023/01/12 19:38:05;;;;;;;;;1.00;1.00;;;;;12.50;75.84;100877.88;6273824;22;45393;-41
2023/01/12 19:40:43;;;;;;;;;1.00;1.00;;;;;12.51;76.14;100879.53;6273852;22;46000;-45
2023/01/12 19:43:18;;;;;;;;;0.00;0.00;;;;;12.47;75.78;100851.50;6274071;22;45297;-41
2023/01/12 19:45:49;;;;;;;;;0.00;0.00;;;;;12.48;75.64;100858.53;6274894;22;45210;-41
2023/01/12 19:48:16;;;;;;;;;0.00;0.00;;;;;12.51;75.92;100868.88;6275025;22;45396;-44
2023/01/12 19:50:43;;;;;;;;;2.33;1.00;;;;;12.52;75.82;100867.06;6273854;22;46970;-45
2023/01/12 19:53:11;;;;;;;;;1.00;1.00;;;;;12.53;76.04;100877.56;6273700;22;45303;-53
2023/01/12 19:55:40;;;;;;;;;1.00;1.00;;;;;12.53;75.73;100864.22;6274600;22;45252;-44
2023/01/12 19:58:07;;;;;;;;;1.00;0.67;;;;;12.48;75.14;100871.88;6274081;22;45357;-51
2023/01/12 20:00:42;;;;;;;;;0.67;0.33;;;;;12.49;75.64;100852.19;6274223;22;45956;-52
2023/01/12 20:03:11;;;;;;;;;2.33;1.00;;;;;12.52;75.65;100862.56;6273684;22;45311;-48
2023/01/12 20:05:38;;;;;;;;;0.33;0.33;;;;;12.54;75.36;100873.06;6274233;22;45267;-41
2023/01/12 20:08:04;;;;;;;;;2.33;1.33;;;;;12.53;75.64;100880.25;6274286;22;45228;-49
2023/01/12 20:10:30;;;;;;;;;0.00;0.00;;;;;12.47;75.28;100864.84;6273233;22;46827;-42
2023/01/12 20:12:55;;;;;;;;;0.33;0.33;;;;;12.51;75.36;100858.19;6274288;22;48668;-49
2023/01/12 20:15:20;;;;;;;;;1.00;1.00;;;;;12.53;74.98;100860.72;6273467;22;45252;-41
2023/01/12 20:17:47;;;;;;;;;0.00;0.00;;;;;12.50;75.38;100867.19;6275623;22;45327;-49
2023/01/12 20:20:13;;;;;;;;;2.67;1.00;;;;;12.44;75.21;100855.34;6275193;22;46343;-50
2023/01/12 20:22:39;;;;;;;;;2.67;0.00;;;;;12.22;75.02;100802.50;6273980;22;45328;-47
2023/01/12 20:25:05;;;;;;;;;2.00;1.00;;;;;12.53;75.52;100866.06;6274361;22;45399;-42
2023/01/12 20:27:31;;;;;;;;;1.00;0.67;;;;;12.52;74.98;100861.72;6273691;22;45276;-44
2023/01/12 20:29:58;;;;;;;;;2.00;1.00;;;;;12.48;74.93;100856.69;6275428;22;45276;-46
2023/01/12 20:32:24;;;;;;;;;3.00;0.00;;;;;12.51;74.82;100871.53;6274035;22;45229;-52
2023/01/12 20:34:49;;;;;;;;;1.67;1.00;;;;;12.49;75.62;100869.03;6275288;22;45186;-56
2023/01/12 20:37:15;;;;;;;;;0.00;0.00;;;;;12.51;75.58;100874.22;6275643;22;45095;-41
2023/01/12 20:39:40;;;;;;;;;1.00;1.00;;;;;12.49;75.17;100868.19;6274192;22;46950;-41
2023/01/12 20:42:05;;;;;;;;;2.00;0.33;;;;;12.49;75.88;100863.69;6275412;22;45653;-49
2023/01/12 20:44:31;;;;;;;;;1.00;1.00;;;;;12.46;75.87;100865.84;6275311;22;45295;-41
2023/01/12 20:46:56;;;;;;;;;2.67;0.00;;;;;12.43;75.63;100867.00;6275396;22;45667;-41
2023/01/12 20:49:22;;;;;;;;;2.00;0.33;;;;;12.46;75.83;100857.84;6275507;22;46323;-49
2023/01/12 20:51:48;;;;;;;;;3.67;0.67;;;;;12.48;76.25;100863.88;6275620;22;45253;-52
2023/01/12 20:54:14;;;;;;;;;3.00;1.00;;;;;12.47;76.15;100856.84;6275250;22;45250;-56
2023/01/12 20:56:40;;;;;;;;;1.00;1.00;;;;;12.44;75.60;100854.50;6275256;22;45318;-50
2023/01/12 20:59:05;;;;;;;;;2.00;0.33;;;;;12.45;76.32;100853.50;6274710;22;47208;-55
2023/01/12 21:01:31;;;;;;;;;0.33;0.33;;;;;12.46;76.24;100852.50;6274291;22;45358;-54
2023/01/12 21:03:56;;;;;;;;;2.00;0.00;;;;;12.46;75.97;100858.66;6275107;22;45381;-51
2023/01/12 21:06:22;;;;;;;;;0.00;0.00;;;;;12.46;76.60;100858.66;6275509;22;45337;-53
2023/01/12 21:08:47;;;;;;;;;1.00;1.00;;;;;12.44;76.28;100855.34;6275249;22;46921;-44
2023/01/12 21:11:15;;;;;;;;;1.33;1.00;;;;;12.48;76.17;100861.19;6274928;22;45102;-45
2023/01/12 21:13:41;;;;;;;;;0.00;0.00;;;;;12.48;76.20;100856.69;6275093;22;45663;-51
2023/01/12 21:16:11;;;;;;;;;3.00;0.00;;;;;12.49;76.72;100857.53;6275450;22;45188;-55
2023/01/12 21:18:36;;;;;;;;;0.00;0.00;;;;;12.48;76.37;100862.03;6274698;22;46119;-47
2023/01/12 21:21:03;;;;;;;;;3.33;1.00;;;;;12.45;76.90;100845.50;6274985;22;45316;-54
2023/01/12 21:23:28;;;;;;;;;1.00;1.00;;;;;12.48;77.35;100848.69;6275444;22;45450;-52
2023/01/12 21:25:54;;;;;;;;;0.00;0.00;;;;;12.47;77.24;100854.16;6275367;22;45307;-50
2023/01/12 21:28:20;;;;;;;;;0.00;0.00;;;;;12.47;77.76;100854.16;6273457;22;45235;-47
2023/01/12 21:30:45;;;;;;;;;0.00;0.00;;;;;12.48;78.01;100850.53;6274701;22;45340;-54
2023/01/12 21:33:12;;;;;;;;;0.00;0.00;;;;;12.48;78.08;100861.19;6275086;22;45308;-46
2023/01/12 21:35:37;;;;;;;;;4.00;1.00;;;;;12.46;78.47;100861.34;6276047;22;45350;-46
2023/01/12 21:38:03;;;;;;;;;1.67;0.00;;;;;12.46;78.46;100855.16;6274675;22;46023;-51
2023/01/12 21:40:29;;;;;;;;;0.00;0.00;;;;;12.46;79.12;100860.50;6247624;22;45721;-41
2023/01/12 21:43:11;;;;;;;;;0.33;0.33;;;;;12.46;78.60;100852.50;6275272;22;45261;-49
2023/01/12 21:45:38;;;;;;;;;1.67;0.67;;;;;12.44;78.54;100854.50;6274512;22;45529;-46
2023/01/12 21:48:03;;;;;;;;;2.00;0.67;;;;;12.41;79.13;100854.81;6275315;22;45692;-52
2023/01/12 21:50:31;;;;;;;;;0.00;0.00;;;;;12.42;79.25;100851.97;6274821;22;45261;-46
2023/01/12 21:52:56;;;;;;;;;3.33;0.33;;;;;12.44;79.63;100854.50;6275210;22;45300;-52
2023/01/12 21:55:22;;;;;;;;;0.00;0.00;;;;;12.33;79.75;100831.56;6275291;22;45367;-48
2023/01/12 21:57:48;;;;;;;;;0.00;0.00;;;;;12.42;79.01;100846.63;6274345;22;47509;-52
2023/01/12 22:00:14;;;;;;;;;2.67;0.67;;;;;12.44;79.47;100857.16;6274590;22;45257;-48
2023/01/12 22:02:40;;;;;;;;;1.00;1.00;;;;;12.42;79.94;100840.47;6274695;22;45159;-47
2023/01/12 22:05:06;;;;;;;;;1.33;0.33;;;;;12.43;79.85;100850.13;6274663;22;45426;-54
2023/01/12 22:07:31;;;;;;;;;1.00;1.00;;;;;12.41;79.79;100839.63;6273124;22;46000;-52
2023/01/12 22:10:17;;;;;;;;;0.67;0.00;;;;;12.40;79.74;100826.47;6272457;22;45350;-54
2023/01/12 22:12:42;;;;;;;;;1.00;0.00;;;;;12.35;80.20;100840.28;6274301;22;45656;-41
2023/01/12 22:15:07;;;;;;;;;1.00;0.00;;;;;12.39;80.25;100843.47;6275560;22;45272;-51
2023/01/12 22:17:32;;;;;;;;;2.67;1.00;;;;;12.39;80.50;100852.31;6274022;22;46519;-50
2023/01/12 22:19:58;;;;;;;;;1.00;1.00;;;;;12.41;79.34;100846.81;6274568;22;51774;-52
2023/01/12 22:22:23;;;;;;;;;3.00;1.00;;;;;12.39;80.49;100851.47;6274950;22;45258;-48
2023/01/12 22:24:48;;;;;;;;;0.00;0.00;;;;;12.34;79.59;100849.25;6274791;22;45479;-48
2023/01/12 22:27:14;;;;;;;;;3.00;1.00;;;;;12.36;81.17;100846.44;6274462;22;51398;-51
2023/01/12 22:29:39;;;;;;;;;0.00;0.00;;;;;12.33;80.96;100844.06;6275220;22;45198;-54
2023/01/12 22:32:04;;;;;;;;;3.00;0.00;;;;;12.34;80.74;100864.41;6275624;22;45336;-55
2023/01/12 22:34:30;;;;;;;;;1.33;0.00;;;;;12.29;80.73;100848.88;6275358;22;45395;-50
2023/01/12 22:36:56;;;;;;;;;2.00;1.00;;;;;12.32;81.08;100847.75;6247233;22;45300;-52
2023/01/12 22:39:21;;;;;;;;;1.33;0.00;;;;;12.30;80.79;100852.38;6273643;22;45237;-48
2023/01/12 22:41:49;;;;;;;;;0.00;0.00;;;;;12.28;81.24;100852.53;6274739;22;45256;-52
2023/01/12 22:44:14;;;;;;;;;4.00;1.00;;;;;12.30;80.46;100852.38;6275345;22;45414;-52
2023/01/12 22:46:40;;;;;;;;;0.00;0.00;;;;;12.28;82.29;100847.22;6275417;22;45210;-52
2023/01/12 22:49:06;;;;;;;;;2.33;0.00;;;;;12.29;81.68;100851.53;6274843;22;45270;-55
2023/01/12 22:51:31;;;;;;;;;0.00;0.00;;;;;12.28;82.31;100863.22;6274494;22;45151;-43
2023/01/12 22:53:57;;;;;;;;;2.00;0.00;;;;;12.27;82.53;100850.03;6275340;22;45340;-50
2023/01/12 22:56:23;;;;;;;;;0.33;0.33;;;;;12.26;81.84;100851.84;6274600;22;45915;-50
2023/01/12 22:58:51;;;;;;;;;1.00;0.00;;;;;12.23;82.52;100849.50;6275523;22;45374;-51
2023/01/12 23:01:17;;;;;;;;;1.67;0.00;;;;;12.27;83.24;100866.03;6275594;22;45376;-50
2023/01/12 23:03:43;;;;;;;;;0.00;0.00;;;;;12.24;82.74;100859.19;6275255;22;45134;-55
2023/01/12 23:06:11;;;;;;;;;1.00;1.00;;;;;12.24;83.33;100856.50;6274990;22;45433;-41
2023/01/12 23:08:36;;;;;;;;;0.67;0.67;;;;;12.25;82.49;100850.19;6274771;22;45374;-52
2023/01/12 23:11:09;;;;;;;;;2.67;0.67;;;;;12.25;81.97;100855.50;6247277;22;45146;-41
2023/01/12 23:13:35;;;;;;;;;2.33;1.00;;;;;12.24;82.80;100860.00;6276148;22;45374;-50
2023/01/12 23:16:03;;;;;;;;;0.00;0.00;;;;;12.26;82.81;100856.34;6275773;22;45817;-44
2023/01/12 23:18:30;;;;;;;;;0.00;0.00;;;;;12.24;83.68;100854.69;6275628;22;45391;-54
2023/01/12 23:21:26;;;;;;;;;1.00;0.00;;;;;12.24;83.64;100846.69;6274132;22;45271;-41
2023/01/12 23:23:54;;;;;;;;;0.33;0.00;;;;;12.24;83.59;100840.50;6121144;23;45345;-43
2023/01/12 23:26:23;;;;;;;;;2.00;0.00;;;;;12.25;83.09;100834.16;6120101;23;46223;-47
2023/01/12 23:28:51;;;;;;;;;0.00;0.00;;;;;12.25;83.00;100831.50;6120593;23;45418;-54
2023/01/12 23:31:20;;;;;;;;;0.00;0.00;;;;;12.26;82.99;100833.16;6096108;23;45444;-51
2023/01/12 23:33:46;;;;;;;;;0.00;0.00;;;;;12.25;83.25;100812.84;6121235;23;45216;-50
2023/01/12 23:36:14;;;;;;;;;1.00;1.00;;;;;12.28;83.16;100822.38;6120517;23;46219;-51
2023/01/12 23:38:39;;;;;;;;;1.00;1.00;;;;;12.29;83.73;100816.03;6120306;23;45262;-45
2023/01/12 23:41:24;;;;;;;;;0.00;0.00;;;;;12.12;83.35;100785.75;6120500;23;45740;-43
2023/01/12 23:43:51;;;;;;;;;0.00;0.00;;;;;12.28;83.14;100796.53;6121540;23;45291;-44
2023/01/12 23:46:22;;;;;;;;;1.33;0.33;;;;;12.28;82.94;100795.69;6120308;23;46944;-41
2023/01/12 23:48:48;;;;;;;;;0.00;0.00;;;;;12.28;82.72;100795.69;6120310;23;45512;-46
2023/01/12 23:51:14;;;;;;;;;0.00;0.00;;;;;12.26;84.53;100798.50;6121343;23;45481;-42
2023/01/12 23:53:40;;;;;;;;;1.00;1.00;;;;;12.24;84.09;100787.16;6120787;23;45472;-42
2023/01/12 23:56:08;;;;;;;;;1.00;1.00;;;;;12.27;83.85;100783.34;6120303;23;46176;-42
2023/01/12 23:58:34;;;;;;;;;0.00;0.00;;;;;12.24;84.12;100780.00;6121155;23;45263;-41
